sensor_id;sensor_type;location;lat;lon;timestamp;pressure;altitude;pressure_sealevel;temperature;humidity
63405;BME280;49541;57.840;12.306;2023-03-20T00:02:20;100268.88;;;8.88;93.79
63405;BME280;49541;57.840;12.306;2023-03-20T00:07:20;100263.53;;;8.99;92.67
63405;BME280;49541;57.840;12.306;2023-03-20T00:12:22;100258.94;;;8.80;93.43
63405;BME280;49541;57.840;12.306;2023-03-20T00:17:23;100249.47;;;8.67;93.91
63405;BME280;49541;57.840;12.306;2023-03-20T00:22:24;100247.91;;;8.64;94.51
63405;BME280;49541;57.840;12.306;2023-03-20T00:27:24;100247.16;;;8.52;94.63
63405;BME280;49541;57.840;12.306;2023-03-20T00:32:24;100240.53;;;8.68;94.62
63405;BME280;49541;57.840;12.306;2023-03-20T00:37:24;100224.81;;;8.76;92.96
63405;BME280;49541;57.840;12.306;2023-03-20T00:42:27;100226.63;;;8.54;93.70
63405;BME280;49541;57.840;12.306;2023-03-20T00:47:27;100225.72;;;8.65;93.54
63405;BME280;49541;57.840;12.306;2023-03-20T00:52:27;100229.72;;;8.59;93.90
63405;BME280;49541;57.840;12.306;2023-03-20T00:57:38;100220.53;;;8.64;92.68
63405;BME280;49541;57.840;12.306;2023-03-20T01:02:39;100228.25;;;8.46;93.42
63405;BME280;49541;57.840;12.306;2023-03-20T01:07:39;100217.03;;;8.42;93.37
63405;BME280;49541;57.840;12.306;2023-03-20T01:12:40;100216.97;;;7.89;95.18
63405;BME280;49541;57.840;12.306;2023-03-20T01:17:41;100204.81;;;8.18;94.96
63405;BME280;49541;57.840;12.306;2023-03-20T01:22:42;100204.16;;;8.05;93.83
63405;BME280;49541;57.840;12.306;2023-03-20T01:27:43;100200.00;;;8.12;94.50
63405;BME280;49541;57.840;12.306;2023-03-20T01:32:44;100184.16;;;8.01;94.16
63405;BME280;49541;57.840;12.306;2023-03-20T01:37:46;100179.81;;;8.00;94.20
63405;BME280;49541;57.840;12.306;2023-03-20T01:42:47;100184.22;;;8.11;93.78
63405;BME280;49541;57.840;12.306;2023-03-20T01:47:47;100183.56;;;7.97;93.67
63405;BME280;49541;57.840;12.306;2023-03-20T01:52:48;100168.13;;;8.03;94.28
63405;BME280;49541;57.840;12.306;2023-03-20T01:57:50;100173.75;;;8.09;93.54
63405;BME280;49541;57.840;12.306;2023-03-20T02:02:52;100157.78;;;8.20;92.93
63405;BME280;49541;57.840;12.306;2023-03-20T02:13:12;100155.88;;;7.90;94.99
63405;BME280;49541;57.840;12.306;2023-03-20T02:18:12;100150.91;;;7.97;94.55
63405;BME280;49541;57.840;12.306;2023-03-20T02:23:18;100137.00;;;7.84;95.81
63405;BME280;49541;57.840;12.306;2023-03-20T02:28:35;100134.25;;;7.74;96.60
63405;BME280;49541;57.840;12.306;2023-03-20T02:33:49;100140.41;;;7.95;97.17
63405;BME280;49541;57.840;12.306;2023-03-20T02:39:19;100128.19;;;8.15;94.37
63405;BME280;49541;57.840;12.306;2023-03-20T02:49:51;100118.59;;;8.03;94.67
63405;BME280;49541;57.840;12.306;2023-03-20T02:54:56;100121.38;;;8.23;93.31
63405;BME280;49541;57.840;12.306;2023-03-20T03:00:08;100114.66;;;8.18;93.86
63405;BME280;49541;57.840;12.306;2023-03-20T03:05:13;100106.38;;;8.33;93.43
63405;BME280;49541;57.840;12.306;2023-03-20T03:10:15;100111.56;;;8.13;92.65
63405;BME280;49541;57.840;12.306;2023-03-20T03:15:20;100098.69;;;7.76;94.94
63405;BME280;49541;57.840;12.306;2023-03-20T03:20:29;100088.34;;;7.73;95.63
63405;BME280;49541;57.840;12.306;2023-03-20T03:25:32;100076.97;;;7.83;95.27
63405;BME280;49541;57.840;12.306;2023-03-20T03:30:35;100076.28;;;7.80;95.94
63405;BME280;49541;57.840;12.306;2023-03-20T03:35:36;100064.22;;;7.88;95.35
63405;BME280;49541;57.840;12.306;2023-03-20T03:41:23;100063.22;;;8.31;93.41
63405;BME280;49541;57.840;12.306;2023-03-20T03:46:01;100063.03;;;8.23;92.78
63405;BME280;49541;57.840;12.306;2023-03-20T03:51:08;100059.75;;;8.30;92.96
63405;BME280;49541;57.840;12.306;2023-03-20T03:56:11;100068.94;;;8.88;90.10
63405;BME280;49541;57.840;12.306;2023-03-20T04:01:11;100072.03;;;8.31;91.05
63405;BME280;49541;57.840;12.306;2023-03-20T04:06:13;100063.28;;;7.77;95.72
63405;BME280;49541;57.840;12.306;2023-03-20T04:11:15;100064.56;;;7.62;98.04
63405;BME280;49541;57.840;12.306;2023-03-20T04:16:17;100046.72;;;7.64;97.68
63405;BME280;49541;57.840;12.306;2023-03-20T04:21:17;100060.16;;;7.51;98.54
63405;BME280;49541;57.840;12.306;2023-03-20T04:26:18;100052.88;;;7.32;99.69
63405;BME280;49541;57.840;12.306;2023-03-20T04:31:18;100059.84;;;7.22;100.00
63405;BME280;49541;57.840;12.306;2023-03-20T04:36:18;100054.78;;;7.30;100.00
63405;BME280;49541;57.840;12.306;2023-03-20T04:41:19;100041.84;;;7.05;100.00
63405;BME280;49541;57.840;12.306;2023-03-20T04:46:20;100028.97;;;7.11;100.00
63405;BME280;49541;57.840;12.306;2023-03-20T04:51:20;100030.03;;;7.20;100.00
63405;BME280;49541;57.840;12.306;2023-03-20T04:56:20;100038.94;;;7.19;100.00
63405;BME280;49541;57.840;12.306;2023-03-20T05:01:21;100040.66;;;7.09;100.00
63405;BME280;49541;57.840;12.306;2023-03-20T05:06:22;100047.63;;;7.10;100.00
63405;BME280;49541;57.840;12.306;2023-03-20T05:11:22;100027.44;;;6.97;100.00
63405;BME280;49541;57.840;12.306;2023-03-20T05:16:22;100035.63;;;7.06;100.00
63405;BME280;49541;57.840;12.306;2023-03-20T05:21:22;100029.72;;;7.02;100.00
63405;BME280;49541;57.840;12.306;2023-03-20T05:26:23;100036.91;;;7.11;100.00
63405;BME280;49541;57.840;12.306;2023-03-20T05:31:23;100026.94;;;7.04;100.00
63405;BME280;49541;57.840;12.306;2023-03-20T05:36:23;100026.22;;;6.90;100.00
63405;BME280;49541;57.840;12.306;2023-03-20T05:41:23;100027.34;;;6.76;100.00
63405;BME280;49541;57.840;12.306;2023-03-20T05:46:23;100019.75;;;6.83;100.00
63405;BME280;49541;57.840;12.306;2023-03-20T05:51:25;100023.25;;;6.72;100.00
63405;BME280;49541;57.840;12.306;2023-03-20T05:56:26;100014.94;;;6.77;100.00
63405;BME280;49541;57.840;12.306;2023-03-20T06:01:26;100016.41;;;6.81;100.00
63405;BME280;49541;57.840;12.306;2023-03-20T06:06:26;100022.88;;;7.00;100.00
63405;BME280;49541;57.840;12.306;2023-03-20T06:11:26;100029.84;;;6.89;100.00
63405;BME280;49541;57.840;12.306;2023-03-20T06:16:26;100028.16;;;7.00;100.00
63405;BME280;49541;57.840;12.306;2023-03-20T06:21:27;100028.88;;;6.90;100.00
63405;BME280;49541;57.840;12.306;2023-03-20T06:26:27;100024.44;;;6.80;100.00
63405;BME280;49541;57.840;12.306;2023-03-20T06:31:27;100030.47;;;6.93;100.00
63405;BME280;49541;57.840;12.306;2023-03-20T06:36:27;100039.59;;;6.89;100.00
63405;BME280;49541;57.840;12.306;2023-03-20T06:41:27;100043.69;;;6.82;100.00
63405;BME280;49541;57.840;12.306;2023-03-20T06:46:28;100042.38;;;6.76;100.00
63405;BME280;49541;57.840;12.306;2023-03-20T06:51:28;100038.91;;;6.64;100.00
63405;BME280;49541;57.840;12.306;2023-03-20T06:56:28;100049.38;;;6.43;100.00
63405;BME280;49541;57.840;12.306;2023-03-20T07:01:28;100050.56;;;6.39;100.00
63405;BME280;49541;57.840;12.306;2023-03-20T07:06:28;100047.94;;;6.50;100.00
63405;BME280;49541;57.840;12.306;2023-03-20T07:11:29;100046.38;;;6.59;100.00
63405;BME280;49541;57.840;12.306;2023-03-20T07:16:30;100032.66;;;6.65;100.00
63405;BME280;49541;57.840;12.306;2023-03-20T07:21:30;100040.09;;;6.71;100.00
63405;BME280;49541;57.840;12.306;2023-03-20T07:26:30;100035.91;;;6.80;100.00
63405;BME280;49541;57.840;12.306;2023-03-20T07:31:30;100033.75;;;6.63;100.00
63405;BME280;49541;57.840;12.306;2023-03-20T07:36:31;100031.91;;;6.74;100.00
63405;BME280;49541;57.840;12.306;2023-03-20T07:41:31;100035.88;;;6.91;99.84
63405;BME280;49541;57.840;12.306;2023-03-20T07:46:31;100033.22;;;6.91;99.87
63405;BME280;49541;57.840;12.306;2023-03-20T07:51:31;100036.09;;;7.00;99.17
63405;BME280;49541;57.840;12.306;2023-03-20T07:56:32;100036.09;;;7.00;97.91
63405;BME280;49541;57.840;12.306;2023-03-20T08:01:32;100027.59;;;6.85;97.45
63405;BME280;49541;57.840;12.306;2023-03-20T08:06:32;100040.22;;;6.70;97.88
63405;BME280;49541;57.840;12.306;2023-03-20T08:11:32;100038.03;;;6.75;96.54
63405;BME280;49541;57.840;12.306;2023-03-20T08:16:33;100048.88;;;6.72;95.37
63405;BME280;49541;57.840;12.306;2023-03-20T08:21:33;100048.63;;;6.64;95.58
63405;BME280;49541;57.840;12.306;2023-03-20T08:26:33;100064.16;;;6.91;95.27
63405;BME280;49541;57.840;12.306;2023-03-20T08:31:33;100050.06;;;6.79;93.02
63405;BME280;49541;57.840;12.306;2023-03-20T08:36:33;100059.34;;;6.73;92.92
63405;BME280;49541;57.840;12.306;2023-03-20T08:41:35;100056.84;;;6.61;94.02
63405;BME280;49541;57.840;12.306;2023-03-20T08:46:37;100062.22;;;6.70;93.29
63405;BME280;49541;57.840;12.306;2023-03-20T08:51:38;100062.94;;;6.84;93.05
63405;BME280;49541;57.840;12.306;2023-03-20T08:56:39;100061.63;;;6.44;94.33
63405;BME280;49541;57.840;12.306;2023-03-20T09:01:39;100058.00;;;6.34;94.42
63405;BME280;49541;57.840;12.306;2023-03-20T09:06:39;100055.34;;;6.34;94.79
63405;BME280;49541;57.840;12.306;2023-03-20T09:11:40;100036.97;;;6.44;93.89
63405;BME280;49541;57.840;12.306;2023-03-20T09:16:40;100051.75;;;6.57;93.11
63405;BME280;49541;57.840;12.306;2023-03-20T09:21:40;100038.19;;;6.40;93.45
63405;BME280;49541;57.840;12.306;2023-03-20T09:26:40;100054.88;;;6.29;93.11
63405;BME280;49541;57.840;12.306;2023-03-20T09:31:41;100063.63;;;6.07;93.01
63405;BME280;49541;57.840;12.306;2023-03-20T09:36:41;100050.69;;;5.91;94.84
63405;BME280;49541;57.840;12.306;2023-03-20T09:41:45;100057.16;;;5.87;94.65
63405;BME280;49541;57.840;12.306;2023-03-20T09:46:59;100053.56;;;5.88;96.04
63405;BME280;49541;57.840;12.306;2023-03-20T09:57:26;100047.44;;;5.87;94.50
63405;BME280;49541;57.840;12.306;2023-03-20T10:07:46;100045.63;;;5.77;95.38
63405;BME280;49541;57.840;12.306;2023-03-20T10:18:19;100035.75;;;6.03;92.96
63405;BME280;49541;57.840;12.306;2023-03-20T10:23:34;100039.03;;;5.93;93.14
63405;BME280;49541;57.840;12.306;2023-03-20T10:28:40;100042.28;;;5.86;93.47
63405;BME280;49541;57.840;12.306;2023-03-20T10:34:03;100040.31;;;6.12;92.58
63405;BME280;49541;57.840;12.306;2023-03-20T10:39:32;100041.50;;;6.19;91.71
63405;BME280;49541;57.840;12.306;2023-03-20T10:44:38;100064.25;;;6.33;91.30
63405;BME280;49541;57.840;12.306;2023-03-20T10:49:43;100057.84;;;6.13;90.30
63405;BME280;49541;57.840;12.306;2023-03-20T10:54:45;100055.03;;;5.92;91.57
63405;BME280;49541;57.840;12.306;2023-03-20T10:59:49;100055.56;;;6.08;90.59
63405;BME280;49541;57.840;12.306;2023-03-20T11:04:49;100049.47;;;6.30;90.92
63405;BME280;49541;57.840;12.306;2023-03-20T11:10:09;100047.91;;;6.28;89.38
63405;BME280;49541;57.840;12.306;2023-03-20T11:15:14;100046.06;;;6.17;90.02
63405;BME280;49541;57.840;12.306;2023-03-20T11:20:15;100049.22;;;6.33;90.49
63405;BME280;49541;57.840;12.306;2023-03-20T11:30:46;100042.84;;;6.13;90.65
63405;BME280;49541;57.840;12.306;2023-03-20T11:35:47;100051.59;;;6.03;88.62
63405;BME280;49541;57.840;12.306;2023-03-20T11:40:51;100048.28;;;5.88;89.67
63405;BME280;49541;57.840;12.306;2023-03-20T11:45:59;100052.91;;;5.97;89.89
63405;BME280;49541;57.840;12.306;2023-03-20T11:51:02;100045.19;;;5.94;89.43
63405;BME280;49541;57.840;12.306;2023-03-20T11:56:10;100045.63;;;5.77;90.00
63405;BME280;49541;57.840;12.306;2023-03-20T12:01:11;100056.13;;;5.65;89.47
63405;BME280;49541;57.840;12.306;2023-03-20T12:06:15;100049.19;;;5.75;88.81
63405;BME280;49541;57.840;12.306;2023-03-20T12:11:23;100045.59;;;6.01;89.12
63405;BME280;49541;57.840;12.306;2023-03-20T12:16:25;100044.41;;;6.05;88.38
63405;BME280;49541;57.840;12.306;2023-03-20T12:21:32;100039.84;;;6.18;88.18
63405;BME280;49541;57.840;12.306;2023-03-20T12:26:36;100041.75;;;6.16;88.29
63405;BME280;49541;57.840;12.306;2023-03-20T12:31:43;100055.34;;;6.23;88.42
63405;BME280;49541;57.840;12.306;2023-03-20T12:36:47;100040.56;;;6.31;87.13
63405;BME280;49541;57.840;12.306;2023-03-20T12:47:28;100042.38;;;6.42;87.39
63405;BME280;49541;57.840;12.306;2023-03-20T12:52:43;100060.28;;;6.27;86.77
63405;BME280;49541;57.840;12.306;2023-03-20T13:08:02;100046.00;;;6.64;85.93
63405;BME280;49541;57.840;12.306;2023-03-20T13:18:20;100060.53;;;6.58;83.21
63405;BME280;49541;57.840;12.306;2023-03-20T13:34:03;100045.50;;;6.47;84.89
63405;BME280;49541;57.840;12.306;2023-03-20T13:44:26;100042.13;;;6.34;84.22
63405;BME280;49541;57.840;12.306;2023-03-20T13:50:17;100043.00;;;6.57;83.93
63405;BME280;49541;57.840;12.306;2023-03-20T14:05:08;100062.22;;;6.59;82.77
63405;BME280;49541;57.840;12.306;2023-03-20T14:15:19;100056.44;;;6.88;83.13
63405;BME280;49541;57.840;12.306;2023-03-20T14:20:28;100070.75;;;6.85;82.04
63405;BME280;49541;57.840;12.306;2023-03-20T14:25:32;100062.59;;;6.66;82.56
63405;BME280;49541;57.840;12.306;2023-03-20T14:30:40;100053.41;;;6.92;82.70
63405;BME280;49541;57.840;12.306;2023-03-20T14:35:42;100064.63;;;6.85;82.03
63405;BME280;49541;57.840;12.306;2023-03-20T14:40:46;100069.81;;;6.86;81.06
63405;BME280;49541;57.840;12.306;2023-03-20T14:45:53;100075.31;;;6.83;82.53
63405;BME280;49541;57.840;12.306;2023-03-20T14:51:02;100063.06;;;6.71;82.52
63405;BME280;49541;57.840;12.306;2023-03-20T14:56:07;100072.69;;;6.61;83.54
63405;BME280;49541;57.840;12.306;2023-03-20T15:01:54;100079.53;;;6.74;82.27
63405;BME280;49541;57.840;12.306;2023-03-20T15:06:29;100085.69;;;6.86;81.62
63405;BME280;49541;57.840;12.306;2023-03-20T15:11:30;100082.19;;;6.97;82.32
63405;BME280;49541;57.840;12.306;2023-03-20T15:16:31;100087.25;;;7.44;79.14
63405;BME280;49541;57.840;12.306;2023-03-20T15:21:33;100094.88;;;7.26;80.79
63405;BME280;49541;57.840;12.306;2023-03-20T15:26:33;100099.69;;;7.32;79.50
63405;BME280;49541;57.840;12.306;2023-03-20T15:31:36;100110.78;;;7.03;80.77
63405;BME280;49541;57.840;12.306;2023-03-20T15:36:37;100110.72;;;6.82;81.60
63405;BME280;49541;57.840;12.306;2023-03-20T15:41:38;100106.94;;;7.07;82.13
63405;BME280;49541;57.840;12.306;2023-03-20T15:46:39;100105.81;;;7.32;80.80
63405;BME280;49541;57.840;12.306;2023-03-20T15:51:39;100102.34;;;7.32;79.50
63405;BME280;49541;57.840;12.306;2023-03-20T15:56:39;100095.50;;;7.29;79.98
63405;BME280;49541;57.840;12.306;2023-03-20T16:01:45;100095.75;;;7.91;79.04
63405;BME280;49541;57.840;12.306;2023-03-20T16:06:47;100099.75;;;8.69;74.43
63405;BME280;49541;57.840;12.306;2023-03-20T16:11:54;100119.63;;;9.06;72.29
63405;BME280;49541;57.840;12.306;2023-03-20T16:16:55;100117.06;;;9.45;70.52
63405;BME280;49541;57.840;12.306;2023-03-20T16:21:58;100130.19;;;8.96;71.72
63405;BME280;49541;57.840;12.306;2023-03-20T16:26:59;100134.94;;;7.76;75.96
63405;BME280;49541;57.840;12.306;2023-03-20T16:32:01;100133.97;;;7.33;78.72
63405;BME280;49541;57.840;12.306;2023-03-20T16:37:07;100142.94;;;6.87;80.88
63405;BME280;49541;57.840;12.306;2023-03-20T16:42:08;100139.56;;;7.08;80.51
63405;BME280;49541;57.840;12.306;2023-03-20T16:52:13;100143.66;;;7.23;79.82
63405;BME280;49541;57.840;12.306;2023-03-20T16:57:15;100160.44;;;7.56;79.09
63405;BME280;49541;57.840;12.306;2023-03-20T17:02:21;100164.78;;;7.46;79.32
63405;BME280;49541;57.840;12.306;2023-03-20T17:07:21;100168.66;;;6.96;80.97
63405;BME280;49541;57.840;12.306;2023-03-20T17:12:29;100158.09;;;7.08;81.12
63405;BME280;49541;57.840;12.306;2023-03-20T17:17:30;100177.22;;;6.78;82.80
63405;BME280;49541;57.840;12.306;2023-03-20T17:22:30;100189.84;;;6.74;83.45
63405;BME280;49541;57.840;12.306;2023-03-20T17:27:32;100201.41;;;6.95;82.75
63405;BME280;49541;57.840;12.306;2023-03-20T17:32:33;100217.03;;;6.98;81.95
63405;BME280;49541;57.840;12.306;2023-03-20T17:37:33;100225.59;;;6.44;84.31
63405;BME280;49541;57.840;12.306;2023-03-20T17:42:33;100239.09;;;6.04;86.50
63405;BME280;49541;57.840;12.306;2023-03-20T17:47:34;100244.06;;;6.33;87.53
63405;BME280;49541;57.840;12.306;2023-03-20T17:52:34;100249.41;;;6.55;85.94
63405;BME280;49541;57.840;12.306;2023-03-20T17:57:35;100236.91;;;6.93;82.21
63405;BME280;49541;57.840;12.306;2023-03-20T18:02:36;100243.22;;;6.68;82.91
63405;BME280;49541;57.840;12.306;2023-03-20T18:07:36;100262.50;;;6.92;82.01
63405;BME280;49541;57.840;12.306;2023-03-20T18:12:36;100253.38;;;6.26;84.52
63405;BME280;49541;57.840;12.306;2023-03-20T18:17:37;100252.16;;;6.19;85.99
63405;BME280;49541;57.840;12.306;2023-03-20T18:22:37;100251.81;;;6.23;84.61
63405;BME280;49541;57.840;12.306;2023-03-20T18:27:37;100254.69;;;5.96;85.64
63405;BME280;49541;57.840;12.306;2023-03-20T18:32:38;100247.03;;;5.67;88.04
63405;BME280;49541;57.840;12.306;2023-03-20T18:37:38;100242.38;;;5.71;87.64
63405;BME280;49541;57.840;12.306;2023-03-20T18:42:39;100241.44;;;5.59;88.78
63405;BME280;49541;57.840;12.306;2023-03-20T18:47:39;100259.03;;;5.34;90.11
63405;BME280;49541;57.840;12.306;2023-03-20T18:52:40;100257.03;;;5.38;90.33
63405;BME280;49541;57.840;12.306;2023-03-20T18:57:40;100262.50;;;5.35;92.19
63405;BME280;49541;57.840;12.306;2023-03-20T19:02:41;100282.88;;;5.59;89.65
63405;BME280;49541;57.840;12.306;2023-03-20T19:07:41;100291.66;;;5.46;89.62
63405;BME280;49541;57.840;12.306;2023-03-20T19:12:41;100306.63;;;5.71;90.21
63405;BME280;49541;57.840;12.306;2023-03-20T19:17:41;100308.75;;;5.66;88.71
63405;BME280;49541;57.840;12.306;2023-03-20T19:22:42;100324.94;;;5.49;89.59
63405;BME280;49541;57.840;12.306;2023-03-20T19:27:42;100330.53;;;5.06;91.57
63405;BME280;49541;57.840;12.306;2023-03-20T19:32:42;100340.94;;;4.95;93.02
63405;BME280;49541;57.840;12.306;2023-03-20T19:37:42;100348.28;;;5.17;92.75
63405;BME280;49541;57.840;12.306;2023-03-20T19:42:43;100343.72;;;5.19;92.78
63405;BME280;49541;57.840;12.306;2023-03-20T19:47:43;100331.78;;;5.51;90.85
63405;BME280;49541;57.840;12.306;2023-03-20T19:52:43;100338.97;;;5.37;91.07
63405;BME280;49541;57.840;12.306;2023-03-20T19:57:43;100328.63;;;5.33;91.64
63405;BME280;49541;57.840;12.306;2023-03-20T20:02:44;100330.72;;;5.67;91.09
63405;BME280;49541;57.840;12.306;2023-03-20T20:07:44;100347.31;;;5.56;90.27
63405;BME280;49541;57.840;12.306;2023-03-20T20:12:46;100341.09;;;5.57;90.26
63405;BME280;49541;57.840;12.306;2023-03-20T20:17:46;100338.50;;;5.94;88.53
63405;BME280;49541;57.840;12.306;2023-03-20T20:22:47;100336.16;;;6.02;87.70
63405;BME280;49541;57.840;12.306;2023-03-20T20:27:47;100339.88;;;6.00;87.66
63405;BME280;49541;57.840;12.306;2023-03-20T20:32:48;100349.28;;;6.04;88.48
63405;BME280;49541;57.840;12.306;2023-03-20T20:37:48;100336.31;;;6.25;86.47
63405;BME280;49541;57.840;12.306;2023-03-20T20:42:49;100342.09;;;6.30;85.78
63405;BME280;49541;57.840;12.306;2023-03-20T20:47:51;100351.09;;;6.27;86.02
63405;BME280;49541;57.840;12.306;2023-03-20T20:52:51;100368.28;;;6.22;85.92
63405;BME280;49541;57.840;12.306;2023-03-20T20:57:52;100373.41;;;5.99;87.84
63405;BME280;49541;57.840;12.306;2023-03-20T21:02:53;100378.25;;;5.92;88.36
63405;BME280;49541;57.840;12.306;2023-03-20T21:07:53;100375.69;;;6.41;85.98
63405;BME280;49541;57.840;12.306;2023-03-20T21:12:53;100376.66;;;6.40;86.38
63405;BME280;49541;57.840;12.306;2023-03-20T21:17:53;100390.97;;;6.37;86.36
63405;BME280;49541;57.840;12.306;2023-03-20T21:22:53;100392.34;;;6.67;84.60
63405;BME280;49541;57.840;12.306;2023-03-20T21:27:54;100398.47;;;6.43;84.82
63405;BME280;49541;57.840;12.306;2023-03-20T21:32:54;100397.69;;;6.54;85.49
63405;BME280;49541;57.840;12.306;2023-03-20T21:37:54;100397.28;;;6.34;85.42
63405;BME280;49541;57.840;12.306;2023-03-20T21:42:55;100404.69;;;6.42;85.47
63405;BME280;49541;57.840;12.306;2023-03-20T21:47:56;100415.81;;;6.34;86.11
63405;BME280;49541;57.840;12.306;2023-03-20T21:52:57;100412.94;;;6.74;84.50
63405;BME280;49541;57.840;12.306;2023-03-20T21:57:57;100412.34;;;6.58;84.34
63405;BME280;49541;57.840;12.306;2023-03-20T22:02:57;100410.56;;;6.59;85.56
63405;BME280;49541;57.840;12.306;2023-03-20T22:07:58;100417.28;;;6.75;85.04
63405;BME280;49541;57.840;12.306;2023-03-20T22:12:58;100426.88;;;7.01;83.10
63405;BME280;49541;57.840;12.306;2023-03-20T22:17:58;100429.72;;;6.49;85.10
63405;BME280;49541;57.840;12.306;2023-03-20T22:22:59;100413.22;;;6.83;84.39
63405;BME280;49541;57.840;12.306;2023-03-20T22:27:59;100419.75;;;6.29;86.26
63405;BME280;49541;57.840;12.306;2023-03-20T22:32:59;100412.63;;;6.05;89.21
63405;BME280;49541;57.840;12.306;2023-03-20T22:38:00;100416.56;;;6.24;90.19
63405;BME280;49541;57.840;12.306;2023-03-20T22:43:00;100421.34;;;6.55;88.22
63405;BME280;49541;57.840;12.306;2023-03-20T22:48:00;100424.72;;;6.33;87.75
63405;BME280;49541;57.840;12.306;2023-03-20T22:53:00;100424.69;;;6.46;85.86
63405;BME280;49541;57.840;12.306;2023-03-20T22:58:00;100425.72;;;6.56;84.09
63405;BME280;49541;57.840;12.306;2023-03-20T23:03:01;100438.00;;;6.45;85.05
63405;BME280;49541;57.840;12.306;2023-03-20T23:08:02;100438.44;;;7.00;80.71
63405;BME280;49541;57.840;12.306;2023-03-20T23:13:02;100439.94;;;6.30;83.05
63405;BME280;49541;57.840;12.306;2023-03-20T23:18:03;100462.06;;;6.66;82.88
63405;BME280;49541;57.840;12.306;2023-03-20T23:23:04;100455.09;;;6.65;81.77
63405;BME280;49541;57.840;12.306;2023-03-20T23:28:04;100459.28;;;6.80;81.91
63405;BME280;49541;57.840;12.306;2023-03-20T23:33:05;100456.44;;;6.70;81.75
63405;BME280;49541;57.840;12.306;2023-03-20T23:38:05;100458.78;;;6.25;83.67
63405;BME280;49541;57.840;12.306;2023-03-20T23:43:05;100463.22;;;6.38;84.65
63405;BME280;49541;57.840;12.306;2023-03-20T23:48:06;100465.50;;;6.55;83.14
63405;BME280;49541;57.840;12.306;2023-03-20T23:53:06;100465.09;;;6.48;82.80
63405;BME280;49541;57.840;12.306;2023-03-20T23:58:07;100459.91;;;6.47;82.64
